Time;durP1;ratioP1;P1;durP2;ratioP2;P2;SDS_P1;SDS_P2;PMS_P1;PMS_P2;Temp;Humidity;BMP_temperature;BMP_pressure;BME280_temperature;BME280_humidity;BME280_pressure;Samples;Min_cycle;Max_cycle;Signal;HPM_P1;HPM_P2
2022/10/10 00:00:42;;;;;;;8.63;5.82;;;;;;;5.14;100.00;101507.25;5053485;28;20065;-78
2022/10/10 00:03:09;;;;;;;10.27;6.13;;;;;;;5.12;100.00;101505.53;5051623;28;20090;-78
2022/10/10 00:05:36;;;;;;;9.93;5.75;;;;;;;5.10;100.00;101501.28;5053327;28;20072;-78
2022/10/10 00:08:03;;;;;;;8.18;6.22;;;;;;;5.08;100.00;101500.53;5053270;28;20052;-78
2022/10/10 00:10:28;;;;;;;7.45;5.35;;;;;;;5.08;100.00;101501.38;5053697;28;20123;-78
2022/10/10 00:12:54;;;;;;;8.40;6.22;;;;;;;5.05;100.00;101498.91;5053820;28;20528;-77
2022/10/10 00:15:19;;;;;;;9.23;5.93;;;;;;;5.04;100.00;101496.38;5053001;28;20115;-77
2022/10/10 00:17:45;;;;;;;9.52;6.68;;;;;;;5.04;100.00;101496.38;5053601;28;20132;-77
2022/10/10 00:20:12;;;;;;;9.48;6.50;;;;;;;5.04;100.00;101486.66;5068466;28;20021;-77
2022/10/10 00:22:38;;;;;;;8.93;5.88;;;;;;;5.02;100.00;101488.53;5053406;28;20461;-76
2022/10/10 00:25:05;;;;;;;7.32;6.25;;;;;;;4.99;100.00;101490.50;5053085;28;20112;-77
2022/10/10 00:27:30;;;;;;;7.60;5.70;;;;;;;4.99;100.00;101483.44;5052693;28;20037;-77
2022/10/10 00:29:56;;;;;;;8.70;5.82;;;;;;;4.99;100.00;101486.06;5052879;28;20434;-77
2022/10/10 00:32:21;;;;;;;7.88;5.75;;;;;;;4.98;100.00;101480.88;5051710;28;20037;-77
2022/10/10 00:34:46;;;;;;;12.95;6.43;;;;;;;4.98;100.00;101487.00;5053004;28;20033;-77
2022/10/10 00:37:12;;;;;;;10.95;6.32;;;;;;;4.98;100.00;101484.38;5052690;28;20079;-78
2022/10/10 00:39:37;;;;;;;8.32;6.13;;;;;;;4.98;100.00;101480.88;5051784;28;20033;-77
2022/10/10 00:42:02;;;;;;;8.02;5.72;;;;;;;4.97;100.00;101482.69;5053076;28;20381;-77
2022/10/10 00:44:28;;;;;;;13.45;6.97;;;;;;;4.99;100.00;101479.97;5052887;28;20039;-77
2022/10/10 00:46:53;;;;;;;10.27;5.72;;;;;;;5.01;100.00;101475.44;5053127;28;20457;-77
2022/10/10 00:49:23;;;;;;;12.02;6.90;;;;;;;4.99;100.00;101472.88;5053443;28;20086;-77
2022/10/10 00:51:52;;;;;;;7.80;5.95;;;;;;;4.98;100.00;101470.34;5053032;28;20028;-77
2022/10/10 00:54:21;;;;;;;12.27;7.55;;;;;;;4.99;100.00;101475.53;5052992;28;20032;-78
2022/10/10 00:56:51;;;;;;;10.50;6.55;;;;;;;5.00;100.00;101466.69;5056504;28;20037;-77
2022/10/10 00:59:18;;;;;;;11.68;6.57;;;;;;;5.05;100.00;101471.69;5056629;28;20474;-78
2022/10/10 01:01:44;;;;;;;10.65;6.57;;;;;;;5.06;100.00;101468.09;5056343;28;20120;-77
2022/10/10 01:04:35;;;;;;;7.72;6.40;;;;;;;5.10;100.00;101459.91;5056906;28;20124;-77
2022/10/10 01:07:05;;;;;;;11.13;6.72;;;;;;;5.12;100.00;101465.13;5056600;28;20049;-79
2022/10/10 01:09:32;;;;;;;14.98;5.97;;;;;;;5.16;100.00;101466.63;5057012;28;20189;-77
2022/10/10 01:12:03;;;;;;;8.15;6.40;;;;;;;5.26;100.00;101459.88;5055234;28;20029;-77
2022/10/10 01:14:47;;;;;;;;;;;;;;;5.33;100.00;101459.53;5056794;28;20108;-77
2022/10/10 01:17:31;;;;;;;10.90;6.00;;;;;;;5.33;100.00;101463.03;5056568;28;19913;-78
2022/10/10 01:20:17;;;;;;;9.38;6.15;;;;;;;5.31;100.00;101467.53;5056895;28;20032;-77
2022/10/10 01:23:07;;;;;;;6.80;5.07;;;;;;;5.28;100.00;101449.25;5056608;28;20036;-77
2022/10/10 01:25:45;;;;;;;9.07;5.80;;;;;;;5.26;100.00;101453.78;5056450;28;20108;-78
2022/10/10 01:28:37;;;;;;;10.43;5.28;;;;;;;5.23;100.00;101449.50;5071635;28;20025;-77
2022/10/10 01:31:07;;;;;;;8.43;5.80;;;;;;;5.23;100.00;101452.16;5056942;28;20029;-77
2022/10/10 01:34:00;;;;;;;9.88;6.45;;;;;;;5.24;100.00;101443.31;5055710;28;20035;-76
2022/10/10 01:36:50;;;;;;;9.48;6.20;;;;;;;5.23;100.00;101444.25;5056312;28;20033;-77
2022/10/10 01:39:55;;;;;;;10.63;6.72;;;;;;;5.24;100.00;101434.53;5055851;28;20071;-77
2022/10/10 01:42:31;;;;;;;9.50;5.85;;;;;;;5.29;100.00;101433.31;5055888;28;20036;-77
2022/10/10 01:44:57;;;;;;;13.68;6.60;;;;;;;5.35;100.00;101426.84;5071121;28;20465;-77
2022/10/10 01:47:23;;;;;;;12.25;6.70;;;;;;;5.40;100.00;101434.47;5055803;28;20131;-77
2022/10/10 01:49:53;;;;;;;10.75;7.03;;;;;;;5.45;100.00;101430.63;5055390;28;20473;-77
2022/10/10 01:52:37;;;;;;;8.95;6.95;;;;;;;5.47;100.00;101425.25;5055447;28;20033;-77
2022/10/10 01:55:11;;;;;;;12.35;6.78;;;;;;;5.51;100.00;101424.16;5055367;28;20495;-77
2022/10/10 01:58:18;;;;;;;11.43;6.88;;;;;;;5.55;100.00;101422.16;5055799;28;20477;-77
2022/10/10 02:00:57;;;;;;;9.30;6.07;;;;;;;5.54;100.00;101420.44;5055279;28;20048;-77
2022/10/10 02:03:28;;;;;;;12.77;6.68;;;;;;;5.51;100.00;101418.88;5055664;28;20025;-78
2022/10/10 02:05:54;;;;;;;;;;;;;;;5.54;100.00;101423.97;5055940;28;20469;-77
2022/10/10 02:08:45;;;;;;;9.15;5.90;;;;;;;5.54;100.00;101426.59;5054832;28;19916;-77
2022/10/10 02:11:12;;;;;;;10.38;5.88;;;;;;;5.51;100.00;101410.94;5048703;28;20119;-77
2022/10/10 02:13:49;;;;;;;8.35;6.18;;;;;;;5.51;100.00;101413.59;5055250;28;20047;-77
2022/10/10 02:16:21;;;;;;;10.85;6.43;;;;;;;5.51;100.00;101410.94;5055258;28;20028;-77
2022/10/10 02:18:48;;;;;;;;;;;;;;;5.55;100.00;101411.59;5055970;28;20067;-77
2022/10/10 02:21:15;;;;;;;12.18;6.53;;;;;;;5.58;100.00;101409.63;5055131;28;20003;-76
2022/10/10 02:23:44;;;;;;;7.82;5.82;;;;;;;5.59;100.00;101403.41;5055524;28;20079;-77
2022/10/10 02:26:12;;;;;;;13.68;7.15;;;;;;;5.72;100.00;101394.72;5054105;28;20086;-77
2022/10/10 02:28:44;;;;;;;12.00;6.82;;;;;;;5.79;100.00;101390.75;5055643;28;20032;-77
2022/10/10 02:31:15;;;;;;;12.68;7.50;;;;;;;5.86;100.00;101399.19;5054622;28;20468;-77
2022/10/10 02:33:48;;;;;;;18.00;7.23;;;;;;;5.87;100.00;101391.16;5055175;28;20029;-77
2022/10/10 02:36:16;;;;;;;13.65;7.32;;;;;;;5.92;100.00;101386.41;5054911;28;20040;-77
2022/10/10 02:38:43;;;;;;;11.48;7.13;;;;;;;5.94;100.00;101387.19;5054754;28;20499;-77
2022/10/10 02:41:13;;;;;;;12.57;6.63;;;;;;;5.97;100.00;101391.44;5055000;28;20033;-77
2022/10/10 02:43:39;;;;;;;8.70;6.07;;;;;;;5.93;100.00;101385.50;5054631;28;20473;-77
2022/10/10 02:46:08;;;;;;;10.45;6.72;;;;;;;5.92;100.00;101383.78;5054394;28;20556;-79
2022/10/10 02:48:33;;;;;;;11.32;6.32;;;;;;;5.94;100.00;101381.91;5053779;28;20051;-79
2022/10/10 02:50:58;;;;;;;11.43;6.40;;;;;;;5.95;100.00;101378.31;5054741;28;20033;-79
2022/10/10 02:53:24;;;;;;;10.80;6.97;;;;;;;5.99;100.00;101382.50;5054596;28;20060;-79
2022/10/10 02:55:49;;;;;;;12.50;7.68;;;;;;;6.08;100.00;101385.50;5053347;28;20033;-79
2022/10/10 02:58:14;;;;;;;10.13;7.00;;;;;;;6.07;100.00;101381.16;5070606;28;20446;-79
2022/10/10 03:00:40;;;;;;;9.13;6.18;;;;;;;6.04;100.00;101376.91;5054397;28;20024;-78
2022/10/10 03:03:05;;;;;;;9.82;6.72;;;;;;;6.03;100.00;101379.66;5054079;28;20040;-78
2022/10/10 03:05:31;;;;;;;11.27;6.80;;;;;;;5.99;100.00;101382.50;5054310;28;20025;-79
2022/10/10 03:07:56;;;;;;;9.73;6.65;;;;;;;5.99;100.00;101374.56;5052841;28;20409;-79
2022/10/10 03:10:21;;;;;;;12.20;7.10;;;;;;;6.00;100.00;101373.63;5054459;28;20465;-78
2022/10/10 03:12:47;;;;;;;12.15;6.70;;;;;;;5.98;100.00;101366.75;5054617;28;20025;-78
2022/10/10 03:15:12;;;;;;;8.75;6.20;;;;;;;5.96;100.00;101373.88;5054268;28;20032;-79
2022/10/10 03:17:38;;;;;;;12.10;6.97;;;;;;;5.94;100.00;101371.34;5053203;28;20087;-79
2022/10/10 03:20:04;;;;;;;14.50;7.45;;;;;;;5.95;100.00;101372.19;5053838;28;20039;-78
2022/10/10 03:22:29;;;;;;;11.80;6.95;;;;;;;5.96;100.00;101377.38;5054135;28;20029;-77
2022/10/10 03:24:54;;;;;;;10.68;7.50;;;;;;;5.96;100.00;101366.81;5053991;28;20037;-76
2022/10/10 03:27:20;;;;;;;15.15;7.00;;;;;;;6.00;100.00;101367.47;5054227;28;20025;-79
2022/10/10 03:29:45;;;;;;;12.55;7.05;;;;;;;5.99;100.00;101371.94;5053760;28;20033;-76
2022/10/10 03:32:11;;;;;;;10.15;7.25;;;;;;;5.98;100.00;101377.31;5053728;28;20453;-76
2022/10/10 03:34:36;;;;;;;9.95;6.97;;;;;;;5.96;100.00;101369.44;5054059;28;20116;-76
2022/10/10 03:37:02;;;;;;;12.43;7.38;;;;;;;5.97;100.00;101368.53;5053526;28;20033;-76
2022/10/10 03:39:27;;;;;;;11.73;7.68;;;;;;;5.97;100.00;101375.59;5069572;28;20057;-76
2022/10/10 03:41:52;;;;;;;10.60;7.38;;;;;;;5.98;100.00;101372.03;5053691;28;20091;-77
2022/10/10 03:44:18;;;;;;;10.68;7.40;;;;;;;5.98;100.00;101377.31;5053720;28;20052;-79
2022/10/10 03:46:43;;;;;;;12.45;7.25;;;;;;;5.96;100.00;101376.53;5053607;28;20029;-79
2022/10/10 03:49:08;;;;;;;10.90;7.07;;;;;;;5.96;100.00;101376.53;5053483;28;20465;-78
2022/10/10 03:51:34;;;;;;;13.60;7.63;;;;;;;5.95;100.00;101374.81;5053415;28;20033;-80
2022/10/10 03:53:59;;;;;;;13.98;7.47;;;;;;;5.91;100.00;101371.53;5053401;28;20029;-77
2022/10/10 03:56:24;;;;;;;10.38;7.45;;;;;;;5.91;100.00;101370.66;5053504;28;20064;-79
2022/10/10 03:58:50;;;;;;;13.60;7.63;;;;;;;5.90;100.00;101372.47;5053203;28;20108;-80
2022/10/10 04:01:15;;;;;;;15.98;7.75;;;;;;;5.92;100.00;101370.56;5053599;28;20032;-78
2022/10/10 04:03:40;;;;;;;10.48;6.93;;;;;;;5.94;100.00;101379.28;5053262;28;20044;-77
2022/10/10 04:06:06;;;;;;;12.18;7.53;;;;;;;5.96;100.00;101369.44;5052022;28;20040;-80
2022/10/10 04:08:32;;;;;;;16.55;7.43;;;;;;;6.03;100.00;101371.72;5053975;28;20071;-81
2022/10/10 04:10:57;;;;;;;13.40;7.53;;;;;;;6.05;100.00;101360.13;5053307;28;20442;-77
2022/10/10 04:13:24;;;;;;;9.30;6.88;;;;;;;6.05;100.00;101365.41;5053214;28;20093;-79
2022/10/10 04:15:51;;;;;;;11.52;6.70;;;;;;;6.00;100.00;101365.69;5053032;28;20044;-77
2022/10/10 04:18:17;;;;;;;11.35;7.60;;;;;;;5.98;100.00;101354.38;5053087;28;20025;-79
2022/10/10 04:20:43;;;;;;;19.40;7.75;;;;;;;6.03;100.00;101361.16;5053046;28;20036;-76
2022/10/10 04:23:08;;;;;;;17.35;7.43;;;;;;;6.05;100.00;101361.94;5053082;28;20029;-76
2022/10/10 04:25:34;;;;;;;10.43;7.68;;;;;;;6.05;100.00;101357.50;5053288;28;20044;-79
2022/10/10 04:27:59;;;;;;;12.13;7.40;;;;;;;6.07;100.00;101354.75;5051874;28;20408;-77
2022/10/10 04:30:24;;;;;;;16.33;7.70;;;;;;;6.05;100.00;101354.00;5056435;28;20037;-77
2022/10/10 04:32:50;;;;;;;21.00;7.60;;;;;;;6.04;100.00;101361.06;5057474;28;20040;-77
2022/10/10 04:35:15;;;;;;;14.15;7.60;;;;;;;6.03;100.00;101367.31;5057208;28;20037;-79
2022/10/10 04:37:40;;;;;;;16.35;8.15;;;;;;;6.04;100.00;101353.13;5056144;28;20033;-79
2022/10/10 04:40:06;;;;;;;13.05;7.50;;;;;;;6.05;100.00;101360.13;5057374;28;20524;-78
2022/10/10 04:42:32;;;;;;;13.38;7.68;;;;;;;6.06;100.00;101363.59;5058413;28;20445;-79
2022/10/10 04:44:57;;;;;;;12.68;7.85;;;;;;;6.06;100.00;101369.75;5057646;28;20069;-79
2022/10/10 04:47:22;;;;;;;15.18;7.82;;;;;;;6.05;100.00;101359.28;5057414;28;20484;-77
2022/10/10 04:49:48;;;;;;;13.57;7.95;;;;;;;6.05;100.00;101372.50;5057405;28;20028;-79
2022/10/10 04:52:13;;;;;;;12.05;7.15;;;;;;;6.03;100.00;101364.66;5057271;28;20029;-77
2022/10/10 04:54:39;;;;;;;13.20;6.78;;;;;;;6.02;100.00;101370.03;5055564;28;20029;-77
2022/10/10 04:57:05;;;;;;;11.73;8.00;;;;;;;5.98;100.00;101369.38;5056702;28;20040;-77
2022/10/10 04:59:30;;;;;;;12.40;7.53;;;;;;;5.98;100.00;101379.94;5056666;28;20107;-77
2022/10/10 05:01:56;;;;;;;13.43;8.52;;;;;;;5.98;100.00;101374.66;5056559;28;20040;-77
2022/10/10 05:04:21;;;;;;;13.50;8.20;;;;;;;5.93;100.00;101368.81;5056960;28;20025;-77
2022/10/10 05:06:46;;;;;;;16.67;8.27;;;;;;;5.94;100.00;101375.75;5071771;28;20392;-77
2022/10/10 05:09:12;;;;;;;14.15;7.95;;;;;;;5.90;100.00;101371.63;5056715;28;20037;-78
2022/10/10 05:11:37;;;;;;;11.15;8.27;;;;;;;5.87;100.00;101383.22;5056403;28;20142;-77
2022/10/10 05:14:03;;;;;;;15.88;8.52;;;;;;;5.86;100.00;101383.31;5055168;28;20112;-77
2022/10/10 05:16:28;;;;;;;13.70;8.20;;;;;;;5.79;100.00;101381.06;5056266;28;20033;-77
2022/10/10 05:18:56;;;;;;;11.95;8.43;;;;;;;5.74;100.00;101380.50;5056419;28;20033;-77
2022/10/10 05:21:21;;;;;;;13.55;7.68;;;;;;;5.69;100.00;101379.94;5056965;28;20040;-79
2022/10/10 05:23:46;;;;;;;16.35;8.75;;;;;;;5.64;100.00;101382.88;5056034;28;20056;-77
2022/10/10 05:26:12;;;;;;;14.00;7.70;;;;;;;5.60;100.00;101383.16;5056425;28;20128;-77
2022/10/10 05:28:38;;;;;;;13.73;8.32;;;;;;;5.56;100.00;101379.00;5055334;28;20423;-77
2022/10/10 05:31:05;;;;;;;14.27;8.15;;;;;;;5.55;100.00;101385.19;5056397;28;20029;-77
2022/10/10 05:33:31;;;;;;;13.63;9.15;;;;;;;5.52;100.00;101383.59;5071906;28;20031;-77
2022/10/10 05:36:05;;;;;;;13.80;7.88;;;;;;;5.48;100.00;101376.81;5056480;28;20041;-77
2022/10/10 05:38:30;;;;;;;17.98;8.73;;;;;;;5.46;100.00;101391.88;5056109;28;20074;-77
2022/10/10 05:40:56;;;;;;;18.73;8.93;;;;;;;5.44;100.00;101380.56;5055180;28;20040;-77
2022/10/10 05:43:21;;;;;;;20.83;8.80;;;;;;;5.41;100.00;101389.53;5056002;28;20044;-77
2022/10/10 05:45:46;;;;;;;14.07;8.27;;;;;;;5.42;100.00;101385.09;5055891;28;20170;-78
2022/10/10 05:48:12;;;;;;;17.88;8.57;;;;;;;5.42;100.00;101390.34;5056046;28;20531;-77
2022/10/10 05:50:45;;;;;;;17.67;8.80;;;;;;;5.45;100.00;101390.19;5054815;28;20457;-77
2022/10/10 05:53:10;;;;;;;15.80;8.73;;;;;;;5.48;100.00;101385.56;5055909;28;20029;-77
2022/10/10 05:55:35;;;;;;;16.95;8.90;;;;;;;5.56;100.00;101386.91;5056482;28;20511;-77
2022/10/10 05:58:01;;;;;;;16.95;9.50;;;;;;;5.64;100.00;101388.13;5056115;28;20121;-77
2022/10/10 06:00:26;;;;;;;15.50;9.55;;;;;;;5.65;100.00;101379.25;5055744;28;20037;-77
2022/10/10 06:02:52;;;;;;;16.10;9.32;;;;;;;5.69;100.00;101374.66;5055535;28;20063;-77
2022/10/10 06:05:17;;;;;;;18.85;9.00;;;;;;;5.73;100.00;101384.09;5055480;28;20470;-77
2022/10/10 06:07:42;;;;;;;16.15;8.82;;;;;;;5.77;100.00;101382.09;5055953;28;20103;-77
2022/10/10 06:10:08;;;;;;;15.93;9.55;;;;;;;5.81;100.00;101381.81;5070550;28;20438;-77
2022/10/10 06:12:34;;;;;;;13.38;8.25;;;;;;;5.85;100.00;101385.09;5055506;28;20036;-77
2022/10/10 06:14:59;;;;;;;15.23;8.40;;;;;;;5.87;100.00;101383.22;5055831;28;20334;-77
2022/10/10 06:17:25;;;;;;;18.00;10.13;;;;;;;5.95;100.00;101383.59;5055802;28;20147;-77
2022/10/10 06:19:50;;;;;;;24.02;10.90;;;;;;;6.07;100.00;101387.28;5055434;28;20033;-78
2022/10/10 06:22:15;;;;;;;20.95;10.63;;;;;;;6.17;100.00;101392.84;5055253;28;20033;-77
2022/10/10 06:24:41;;;;;;;14.63;9.70;;;;;;;6.23;100.00;101381.88;5055259;28;20087;-77
2022/10/10 06:27:07;;;;;;;16.80;9.30;;;;;;;6.29;100.00;101389.44;5054789;28;20033;-77
2022/10/10 06:29:32;;;;;;;15.75;8.98;;;;;;;6.34;100.00;101403.22;5054411;28;20043;-77
2022/10/10 06:31:57;;;;;;;16.50;9.52;;;;;;;6.40;100.00;101401.09;5055318;28;20033;-77
2022/10/10 06:34:23;;;;;;;14.70;8.70;;;;;;;6.46;100.00;101404.19;5054783;28;20029;-77
2022/10/10 06:36:50;;;;;;;16.20;9.57;;;;;;;6.53;100.00;101404.66;5055545;28;20037;-77
2022/10/10 06:39:15;;;;;;;15.18;8.98;;;;;;;6.59;100.00;101398.97;5055331;28;20087;-77
2022/10/10 06:41:41;;;;;;;21.10;10.02;;;;;;;6.65;100.00;101395.94;5055410;28;20037;-77
2022/10/10 06:44:06;;;;;;;19.98;10.20;;;;;;;6.71;100.00;101402.63;5054802;28;20485;-77
2022/10/10 06:46:36;;;;;;;20.27;9.70;;;;;;;6.79;100.00;101410.03;5054815;28;20500;-77
2022/10/10 06:49:01;;;;;;;19.98;9.60;;;;;;;6.86;100.00;101403.41;5054615;28;20033;-77
2022/10/10 06:51:27;;;;;;;19.55;9.88;;;;;;;6.92;100.00;101412.75;5053098;28;20119;-77
2022/10/10 06:53:52;;;;;;;17.98;9.93;;;;;;;6.98;100.00;101417.63;5069953;28;20060;-77
2022/10/10 06:56:20;;;;;;;17.67;9.35;;;;;;;7.02;100.00;101401.44;5054446;28;20378;-77
2022/10/10 06:58:47;;;;;;;15.95;9.35;;;;;;;7.11;100.00;101415.03;5052973;28;20029;-77
2022/10/10 07:01:13;;;;;;;15.73;8.48;;;;;;;7.16;100.00;101416.38;5055175;28;20162;-77
2022/10/10 07:03:38;;;;;;;17.40;8.75;;;;;;;7.20;100.00;101415.25;5054464;28;20036;-76
2022/10/10 07:06:07;;;;;;;18.58;9.85;;;;;;;7.27;100.00;101420.97;5054567;28;20416;-76
2022/10/10 07:08:33;;;;;;;14.25;9.32;;;;;;;7.36;100.00;101438.03;5054745;28;20064;-76
2022/10/10 07:10:58;;;;;;;19.58;9.63;;;;;;;7.44;100.00;101427.78;5054056;28;20040;-76
2022/10/10 07:13:24;;;;;;;19.33;9.68;;;;;;;7.55;100.00;101427.91;5053774;28;20364;-76
2022/10/10 07:15:49;;;;;;;19.42;10.43;;;;;;;7.68;100.00;101429.69;5053801;28;20454;-75
2022/10/10 07:18:17;;;;;;;24.70;9.68;;;;;;;7.81;100.00;101413.78;5053714;28;20470;-75
2022/10/10 07:20:42;;;;;;;15.95;8.63;;;;;;;7.96;100.00;101420.69;5053863;28;20457;-77
2022/10/10 07:23:07;;;;;;;16.38;8.77;;;;;;;8.11;100.00;101432.00;5054230;28;20029;-77
2022/10/10 07:25:33;;;;;;;20.65;8.90;;;;;;;8.25;100.00;101434.50;5053750;28;20484;-78
2022/10/10 07:27:59;;;;;;;18.25;8.48;;;;;;;8.41;100.00;101434.25;5054110;28;20373;-77
2022/10/10 07:30:24;;;;;;;14.45;8.38;;;;;;;8.62;100.00;101431.03;5053672;28;20154;-77
2022/10/10 07:32:52;;;;;;;19.95;9.10;;;;;;;8.79;100.00;101430.66;5053594;28;20033;-77
2022/10/10 07:35:17;;;;;;;14.20;8.10;;;;;;;9.02;100.00;101430.75;5052188;28;20028;-77
2022/10/10 07:37:43;;;;;;;13.40;7.53;;;;;;;9.25;100.00;101429.03;5052199;28;20442;-77
2022/10/10 07:40:09;;;;;;;11.80;7.22;;;;;;;9.51;100.00;101435.03;5053795;28;20087;-77
2022/10/10 07:42:35;;;;;;;16.40;7.65;;;;;;;9.76;100.00;101429.63;5053633;28;20029;-77
2022/10/10 07:45:00;;;;;;;13.23;7.10;;;;;;;9.97;100.00;101430.59;5052035;28;20033;-78
2022/10/10 07:47:26;;;;;;;12.43;6.93;;;;;;;10.14;100.00;101437.25;5053293;28;20041;-77
2022/10/10 07:49:51;;;;;;;13.18;7.35;;;;;;;10.28;100.00;101436.13;5053236;28;20102;-78
2022/10/10 07:52:16;;;;;;;12.00;6.88;;;;;;;10.36;100.00;101439.06;5053269;28;20523;-79
2022/10/10 07:54:42;;;;;;;16.77;7.25;;;;;;;10.43;100.00;101442.06;5053286;28;20116;-78
2022/10/10 07:57:07;;;;;;;9.32;6.53;;;;;;;10.45;100.00;101440.16;5053119;28;20044;-77
2022/10/10 07:59:33;;;;;;;16.35;6.57;;;;;;;10.48;100.00;101439.91;5052406;28;20025;-77
2022/10/10 08:01:58;;;;;;;17.17;6.43;;;;;;;10.54;100.00;101449.22;5068923;28;20040;-78
2022/10/10 08:04:24;;;;;;;14.48;7.10;;;;;;;10.62;100.00;101457.41;5052873;28;20029;-76
2022/10/10 08:06:49;;;;;;;17.20;6.85;;;;;;;10.71;100.00;101461.13;5053363;28;20037;-78
2022/10/10 08:09:15;;;;;;;17.50;6.80;;;;;;;10.82;100.00;101457.59;5052910;28;20140;-81
2022/10/10 08:11:40;;;;;;;16.05;6.50;;;;;;;10.88;100.00;101460.63;5052062;28;20087;-78
2022/10/10 08:14:05;;;;;;;12.23;6.43;;;;;;;11.00;100.00;101463.22;5052023;28;20052;-78
2022/10/10 08:16:31;;;;;;;13.38;6.15;;;;;;;11.08;100.00;101460.78;5053166;28;20531;-79
2022/10/10 08:18:56;;;;;;;20.00;5.47;;;;;;;11.08;100.00;101456.28;5053124;28;20036;-79
2022/10/10 08:21:22;;;;;;;11.25;5.95;;;;;;;11.09;100.00;101465.13;5052873;28;20107;-81
2022/10/10 08:23:48;;;;;;;18.90;6.75;;;;;;;11.10;100.00;101461.50;5053097;28;20460;-79
2022/10/10 08:26:15;;;;;;;17.20;6.13;;;;;;;11.11;100.00;101464.03;5053076;28;20029;-80
2022/10/10 08:28:42;;;;;;;11.50;5.75;;;;;;;11.17;100.00;101472.50;5053038;28;20032;-80
2022/10/10 08:31:12;;;;;;;13.82;5.40;;;;;;;11.21;100.00;101468.59;5068356;28;20042;-80
2022/10/10 08:33:39;;;;;;;37.95;5.47;;;;;;;11.22;100.00;101472.94;5053679;28;20086;-79
2022/10/10 08:36:11;;;;;;;72.40;7.55;;;;;;;11.25;100.00;101473.53;5053437;28;20064;-79
2022/10/10 08:38:36;;;;;;;;;;;;;;;11.31;100.00;101466.84;5053980;28;20040;-78
2022/10/10 08:41:13;;;;;;;79.57;8.75;;;;;;;11.41;100.00;101465.09;5053016;28;20281;-79
2022/10/10 08:43:48;;;;;;;20.08;6.68;;;;;;;11.57;100.00;101475.31;5052964;28;20029;-78
2022/10/10 08:46:29;;;;;;;9.27;5.40;;;;;;;11.77;100.00;101475.44;5051895;28;20021;-80
2022/10/10 08:48:56;;;;;;;15.30;6.90;;;;;;;11.94;100.00;101468.66;5053392;28;20029;-80
2022/10/10 08:51:32;;;;;;;30.45;5.30;;;;;;;12.07;100.00;101474.63;5052475;28;20341;-79
2022/10/10 08:54:03;;;;;;;18.15;5.35;;;;;;;12.23;100.00;101468.81;5052954;28;20033;-79
2022/10/10 08:56:33;;;;;;;31.80;5.70;;;;;;;12.34;100.00;101474.03;5052798;28;20480;-78
2022/10/10 08:59:09;;;;;;;18.67;6.80;;;;;;;12.43;100.00;101479.56;5053146;28;20072;-80
2022/10/10 09:01:37;;;;;;;7.93;5.47;;;;;;;12.56;100.00;101488.16;5053339;28;20056;-77
2022/10/10 09:04:04;;;;;;;16.30;4.95;;;;;;;12.69;100.00;101477.25;5051885;28;20029;-78
2022/10/10 09:07:04;;;;;;;9.10;4.90;;;;;;;12.79;100.00;101494.09;5052737;28;20033;-78
2022/10/10 09:09:48;;;;;;;9.50;5.13;;;;;;;12.83;100.00;101490.19;5053113;28;20527;-78
2022/10/10 09:12:34;;;;;;;15.85;5.15;;;;;;;13.07;100.00;101488.13;5052940;28;20029;-78
2022/10/10 09:15:17;;;;;;;19.23;5.35;;;;;;;13.38;100.00;101488.84;5052125;28;20444;-78
2022/10/10 09:18:13;;;;;;;13.18;4.70;;;;;;;13.81;100.00;101481.31;5055495;28;20095;-77
2022/10/10 09:20:52;;;;;;;10.07;4.95;;;;;;;14.22;100.00;101492.59;5071931;28;20116;-79
2022/10/10 09:23:27;;;;;;;7.10;4.82;;;;;;;14.57;100.00;101493.69;5056352;28;20155;-77
2022/10/10 09:26:00;;;;;;;35.05;5.30;;;;;;;14.70;100.00;101496.88;5055776;28;20449;-76
2022/10/10 09:28:31;;;;;;;115.32;8.82;;;;;;;14.65;100.00;101509.06;5056214;28;20037;-76
2022/10/10 09:30:59;;;;;;;244.05;12.15;;;;;;;14.49;100.00;101515.03;5056259;28;20037;-75
2022/10/10 09:33:28;;;;;;;28.42;5.45;;;;;;;14.45;100.00;101515.31;5056139;28;20074;-76
2022/10/10 09:35:57;;;;;;;16.00;5.00;;;;;;;14.60;100.00;101512.13;5056436;28;20401;-76
2022/10/10 09:38:34;;;;;;;36.85;6.40;;;;;;;14.81;100.00;101514.63;5055640;28;20051;-75
2022/10/10 09:41:27;;;;;;;16.38;5.20;;;;;;;14.84;100.00;101521.47;5055981;28;20033;-76
2022/10/10 09:43:58;;;;;;;13.00;5.50;;;;;;;14.64;100.00;101516.25;5071930;28;20037;-75
2022/10/10 09:46:25;;;;;;;12.80;5.30;;;;;;;14.36;100.00;101526.06;5055729;28;20469;-76
2022/10/10 09:48:52;;;;;;;10.75;4.95;;;;;;;14.21;100.00;101533.72;5054761;28;20048;-75
2022/10/10 09:51:19;;;;;;;9.50;5.00;;;;;;;14.11;100.00;101528.41;5055678;28;20033;-75
2022/10/10 09:53:46;;;;;;;9.75;5.07;;;;;;;14.06;100.00;101539.56;5055254;28;20024;-77
2022/10/10 09:56:25;;;;;;;14.02;5.50;;;;;;;14.17;100.00;101541.22;5055324;28;20028;-76
2022/10/10 09:58:53;;;;;;;20.75;5.20;;;;;;;14.40;100.00;101541.69;5055861;28;20025;-75
2022/10/10 10:01:22;;;;;;;9.40;5.10;;;;;;;14.65;100.00;101549.25;5055230;28;20345;-75
2022/10/10 10:04:09;;;;;;;10.32;4.55;;;;;;;14.69;100.00;101547.94;5054568;28;20033;-76
2022/10/10 10:06:36;;;;;;;14.45;4.68;;;;;;;14.52;100.00;101552.22;5055110;28;20020;-78
2022/10/10 10:09:04;;;;;;;12.20;4.80;;;;;;;14.21;100.00;101556.00;5054240;28;20041;-78
2022/10/10 10:11:35;;;;;;;21.65;4.97;;;;;;;14.07;100.00;101559.97;5055073;28;20071;-77
2022/10/10 10:14:01;;;;;;;15.63;4.15;;;;;;;14.02;100.00;101572.09;5055070;28;20021;-77
2022/10/10 10:16:36;;;;;;;11.88;4.95;;;;;;;14.02;100.00;101570.25;5055401;28;20032;-77
2022/10/10 10:19:02;;;;;;;8.43;4.50;;;;;;;14.01;100.00;101579.28;5055100;28;20052;-77
2022/10/10 10:21:28;;;;;;;21.88;4.75;;;;;;;13.96;100.00;101578.00;5054990;28;20041;-76
2022/10/10 10:24:21;;;;;;;9.93;4.60;;;;;;;13.85;100.00;101587.91;5054712;28;20029;-77
2022/10/10 10:26:48;;;;;;;12.77;4.25;;;;;;;13.82;100.00;101593.50;5046405;28;20041;-76
2022/10/10 10:29:31;;;;;;;10.70;4.32;;;;;;;13.83;100.00;101602.41;5054587;28;20036;-74
2022/10/10 10:32:14;;;;;;;35.78;4.45;;;;;;;13.83;100.00;101603.22;5055290;28;20036;-77
2022/10/10 10:35:22;;;;;;;27.92;5.65;;;;;;;13.87;100.00;101598.47;5055197;28;20035;-76
2022/10/10 10:38:19;;;;;;;35.67;4.90;;;;;;;13.92;100.00;101597.00;5055094;28;20028;-76
2022/10/10 10:41:04;;;;;;;85.05;6.55;;;;;;;14.05;100.00;101610.09;5054298;28;20029;-75
2022/10/10 10:43:59;;;;;;;43.50;5.85;;;;;;;14.24;100.00;101605.69;5054178;28;20025;-74
2022/10/10 10:46:37;;;;;;;203.15;12.77;;;;;;;14.38;100.00;101607.91;5054590;28;20512;-74
2022/10/10 10:49:13;;;;;;;30.73;5.05;;;;;;;14.54;100.00;101599.28;5053553;28;20110;-72
2022/10/10 10:51:49;;;;;;;97.45;7.13;;;;;;;14.64;100.00;101599.25;5054562;28;20024;-72
2022/10/10 10:54:33;;;;;;;74.70;5.35;;;;;;;14.73;100.00;101600.22;5053747;28;20036;-73
2022/10/10 10:57:07;;;;;;;310.13;14.55;;;;;;;14.86;100.00;101613.28;5054737;28;20040;-73
2022/10/10 10:59:40;;;;;;;148.48;7.95;;;;;;;14.88;100.00;101611.28;5054870;28;20017;-71
2022/10/10 11:02:05;;;;;;;10.90;3.38;;;;;;;14.79;100.00;101597.81;5036979;28;20066;-74
2022/10/10 11:05:06;;;;;;;10.95;2.92;;;;;;;14.74;100.00;101609.94;5069679;28;20445;-72
2022/10/10 11:07:55;;;;;;;14.70;2.87;;;;;;;14.69;100.00;101620.25;5036538;28;20128;-73
2022/10/10 11:10:37;;;;;;;9.93;2.78;;;;;;;14.66;100.00;101617.88;5053859;28;20501;-73
2022/10/10 11:13:37;;;;;;;11.63;2.47;;;;;;;14.52;100.00;101613.81;5054093;28;20021;-74
2022/10/10 11:16:08;;;;;;;8.30;2.35;;;;;;;14.40;100.00;101615.81;5034050;28;20036;-72
2022/10/10 11:19:00;;;;;;;10.52;2.85;;;;;;;14.21;100.00;101612.19;5054016;28;20021;-72
2022/10/10 11:21:28;;;;;;;10.55;2.50;;;;;;;14.05;100.00;101628.84;5053845;28;20059;-76
2022/10/10 11:24:43;;;;;;;7.78;2.03;;;;;;;13.93;100.00;101632.66;5053654;28;20064;-73
2022/10/10 11:27:17;;;;;;;7.78;2.30;;;;;;;13.88;100.00;101629.53;4992496;28;20128;-73
2022/10/10 11:30:19;;;;;;;8.68;1.90;;;;;;;13.75;100.00;101636.03;5050161;28;20041;-73